sensor_id;sensor_type;location;lat;lon;timestamp;P1;durP1;ratioP1;P2;durP2;ratioP2
32082;SDS011;18597;48.328;7.932;2022-09-09T00:00:17;5.77;;;2.03;;
32082;SDS011;18597;48.328;7.932;2022-09-09T00:02:49;3.63;;;1.73;;
32082;SDS011;18597;48.328;7.932;2022-09-09T00:08:24;4.33;;;1.90;;
32082;SDS011;18597;48.328;7.932;2022-09-09T00:11:07;4.57;;;1.87;;
32082;SDS011;18597;48.328;7.932;2022-09-09T00:13:41;9.20;;;1.83;;
32082;SDS011;18597;48.328;7.932;2022-09-09T00:16:28;2.20;;;1.90;;
32082;SDS011;18597;48.328;7.932;2022-09-09T00:19:05;2.40;;;1.50;;
32082;SDS011;18597;48.328;7.932;2022-09-09T00:21:53;1.97;;;1.87;;
32082;SDS011;18597;48.328;7.932;2022-09-09T00:24:46;5.10;;;1.87;;
32082;SDS011;18597;48.328;7.932;2022-09-09T00:27:26;2.03;;;1.80;;
32082;SDS011;18597;48.328;7.932;2022-09-09T00:30:37;2.37;;;1.67;;
32082;SDS011;18597;48.328;7.932;2022-09-09T00:32:59;4.03;;;2.10;;
32082;SDS011;18597;48.328;7.932;2022-09-09T00:35:35;6.93;;;2.03;;
32082;SDS011;18597;48.328;7.932;2022-09-09T00:38:36;9.27;;;2.43;;
32082;SDS011;18597;48.328;7.932;2022-09-09T00:44:00;6.73;;;1.90;;
32082;SDS011;18597;48.328;7.932;2022-09-09T00:50:03;1.70;;;1.60;;
32082;SDS011;18597;48.328;7.932;2022-09-09T00:56:03;3.23;;;1.30;;
32082;SDS011;18597;48.328;7.932;2022-09-09T01:01:45;6.53;;;1.63;;
32082;SDS011;18597;48.328;7.932;2022-09-09T01:04:13;2.80;;;1.10;;
32082;SDS011;18597;48.328;7.932;2022-09-09T01:06:50;3.67;;;1.17;;
32082;SDS011;18597;48.328;7.932;2022-09-09T01:09:30;1.03;;;0.83;;
32082;SDS011;18597;48.328;7.932;2022-09-09T01:12:14;1.93;;;0.80;;
32082;SDS011;18597;48.328;7.932;2022-09-09T01:14:52;4.63;;;1.10;;
32082;SDS011;18597;48.328;7.932;2022-09-09T01:17:58;2.40;;;1.03;;
32082;SDS011;18597;48.328;7.932;2022-09-09T01:20:37;3.40;;;1.10;;
32082;SDS011;18597;48.328;7.932;2022-09-09T01:26:53;1.23;;;1.20;;
32082;SDS011;18597;48.328;7.932;2022-09-09T01:29:25;1.27;;;1.13;;
32082;SDS011;18597;48.328;7.932;2022-09-09T01:31:53;1.20;;;1.20;;
32082;SDS011;18597;48.328;7.932;2022-09-09T01:34:23;2.53;;;1.40;;
32082;SDS011;18597;48.328;7.932;2022-09-09T01:37:09;9.20;;;1.63;;
32082;SDS011;18597;48.328;7.932;2022-09-09T01:39:37;1.57;;;1.47;;
32082;SDS011;18597;48.328;7.932;2022-09-09T01:42:08;1.47;;;0.90;;
32082;SDS011;18597;48.328;7.932;2022-09-09T01:44:38;2.63;;;0.80;;
32082;SDS011;18597;48.328;7.932;2022-09-09T01:47:04;9.40;;;1.60;;
32082;SDS011;18597;48.328;7.932;2022-09-09T01:49:31;3.13;;;1.20;;
32082;SDS011;18597;48.328;7.932;2022-09-09T01:51:58;1.17;;;1.07;;
32082;SDS011;18597;48.328;7.932;2022-09-09T01:54:26;3.27;;;0.70;;
32082;SDS011;18597;48.328;7.932;2022-09-09T01:57:30;1.90;;;0.93;;
32082;SDS011;18597;48.328;7.932;2022-09-09T02:00:05;1.73;;;0.90;;
32082;SDS011;18597;48.328;7.932;2022-09-09T02:05:39;3.60;;;1.30;;
32082;SDS011;18597;48.328;7.932;2022-09-09T02:08:18;1.80;;;0.90;;
32082;SDS011;18597;48.328;7.932;2022-09-09T02:10:59;4.43;;;0.83;;
32082;SDS011;18597;48.328;7.932;2022-09-09T02:13:36;1.57;;;1.23;;
32082;SDS011;18597;48.328;7.932;2022-09-09T02:16:07;3.57;;;0.83;;
32082;SDS011;18597;48.328;7.932;2022-09-09T02:18:44;4.57;;;1.20;;
32082;SDS011;18597;48.328;7.932;2022-09-09T02:21:22;5.60;;;1.23;;
32082;SDS011;18597;48.328;7.932;2022-09-09T02:23:50;2.03;;;1.07;;
32082;SDS011;18597;48.328;7.932;2022-09-09T02:26:18;1.07;;;0.90;;
32082;SDS011;18597;48.328;7.932;2022-09-09T02:28:48;4.77;;;0.83;;
32082;SDS011;18597;48.328;7.932;2022-09-09T02:31:17;1.67;;;1.20;;
32082;SDS011;18597;48.328;7.932;2022-09-09T02:33:48;7.83;;;1.47;;
32082;SDS011;18597;48.328;7.932;2022-09-09T02:36:22;1.73;;;0.80;;
32082;SDS011;18597;48.328;7.932;2022-09-09T02:38:51;3.13;;;1.07;;
32082;SDS011;18597;48.328;7.932;2022-09-09T02:41:20;1.33;;;0.80;;
32082;SDS011;18597;48.328;7.932;2022-09-09T02:43:55;1.27;;;1.13;;
32082;SDS011;18597;48.328;7.932;2022-09-09T02:55:40;4.83;;;1.90;;
32082;SDS011;18597;48.328;7.932;2022-09-09T02:58:30;6.60;;;1.73;;
32082;SDS011;18597;48.328;7.932;2022-09-09T03:00:58;1.47;;;1.33;;
32082;SDS011;18597;48.328;7.932;2022-09-09T03:03:26;0.90;;;0.90;;
32082;SDS011;18597;48.328;7.932;2022-09-09T03:05:52;3.30;;;1.20;;
32082;SDS011;18597;48.328;7.932;2022-09-09T03:08:18;1.83;;;1.30;;
32082;SDS011;18597;48.328;7.932;2022-09-09T03:10:43;5.77;;;1.20;;
32082;SDS011;18597;48.328;7.932;2022-09-09T03:13:09;2.53;;;1.07;;
32082;SDS011;18597;48.328;7.932;2022-09-09T03:15:37;4.00;;;1.43;;
32082;SDS011;18597;48.328;7.932;2022-09-09T03:18:03;3.30;;;1.43;;
32082;SDS011;18597;48.328;7.932;2022-09-09T03:20:29;2.27;;;2.07;;
32082;SDS011;18597;48.328;7.932;2022-09-09T03:22:55;2.67;;;2.47;;
32082;SDS011;18597;48.328;7.932;2022-09-09T03:25:22;3.90;;;2.10;;
32082;SDS011;18597;48.328;7.932;2022-09-09T03:27:49;6.00;;;3.10;;
32082;SDS011;18597;48.328;7.932;2022-09-09T03:30:19;4.43;;;2.03;;
32082;SDS011;18597;48.328;7.932;2022-09-09T03:32:47;2.87;;;2.10;;
32082;SDS011;18597;48.328;7.932;2022-09-09T03:35:13;4.80;;;1.83;;
32082;SDS011;18597;48.328;7.932;2022-09-09T03:37:40;2.70;;;2.07;;
32082;SDS011;18597;48.328;7.932;2022-09-09T03:40:06;3.67;;;1.93;;
32082;SDS011;18597;48.328;7.932;2022-09-09T03:42:34;3.93;;;1.70;;
32082;SDS011;18597;48.328;7.932;2022-09-09T03:45:02;1.27;;;1.20;;
32082;SDS011;18597;48.328;7.932;2022-09-09T03:47:30;6.00;;;2.20;;
32082;SDS011;18597;48.328;7.932;2022-09-09T03:49:56;1.07;;;1.07;;
32082;SDS011;18597;48.328;7.932;2022-09-09T03:52:22;1.20;;;1.20;;
32082;SDS011;18597;48.328;7.932;2022-09-09T03:54:51;2.83;;;1.23;;
32082;SDS011;18597;48.328;7.932;2022-09-09T03:57:18;1.53;;;1.33;;
32082;SDS011;18597;48.328;7.932;2022-09-09T03:59:45;0.97;;;0.90;;
32082;SDS011;18597;48.328;7.932;2022-09-09T04:02:11;2.83;;;1.20;;
32082;SDS011;18597;48.328;7.932;2022-09-09T04:04:37;9.23;;;1.60;;
32082;SDS011;18597;48.328;7.932;2022-09-09T04:07:02;6.27;;;1.67;;
32082;SDS011;18597;48.328;7.932;2022-09-09T04:09:31;1.37;;;1.37;;
32082;SDS011;18597;48.328;7.932;2022-09-09T04:11:56;3.00;;;1.40;;
32082;SDS011;18597;48.328;7.932;2022-09-09T04:14:22;0.93;;;0.93;;
32082;SDS011;18597;48.328;7.932;2022-09-09T04:16:48;3.17;;;1.17;;
32082;SDS011;18597;48.328;7.932;2022-09-09T04:19:14;1.67;;;1.57;;
32082;SDS011;18597;48.328;7.932;2022-09-09T04:21:40;2.80;;;0.83;;
32082;SDS011;18597;48.328;7.932;2022-09-09T04:24:07;1.70;;;1.20;;
32082;SDS011;18597;48.328;7.932;2022-09-09T04:26:34;6.93;;;1.00;;
32082;SDS011;18597;48.328;7.932;2022-09-09T04:29:02;4.70;;;0.90;;
32082;SDS011;18597;48.328;7.932;2022-09-09T04:31:29;4.43;;;1.67;;
32082;SDS011;18597;48.328;7.932;2022-09-09T04:33:55;2.87;;;1.97;;
32082;SDS011;18597;48.328;7.932;2022-09-09T04:36:21;3.33;;;1.53;;
32082;SDS011;18597;48.328;7.932;2022-09-09T04:38:47;1.40;;;1.40;;
32082;SDS011;18597;48.328;7.932;2022-09-09T04:41:14;11.07;;;1.70;;
32082;SDS011;18597;48.328;7.932;2022-09-09T04:43:41;2.50;;;1.47;;
32082;SDS011;18597;48.328;7.932;2022-09-09T04:46:07;1.90;;;1.80;;
32082;SDS011;18597;48.328;7.932;2022-09-09T04:48:34;9.27;;;2.53;;
32082;SDS011;18597;48.328;7.932;2022-09-09T04:51:02;4.67;;;2.17;;
32082;SDS011;18597;48.328;7.932;2022-09-09T04:53:30;2.00;;;1.00;;
32082;SDS011;18597;48.328;7.932;2022-09-09T04:56:07;3.10;;;2.10;;
32082;SDS011;18597;48.328;7.932;2022-09-09T04:58:37;3.40;;;1.80;;
32082;SDS011;18597;48.328;7.932;2022-09-09T05:01:06;2.97;;;1.60;;
32082;SDS011;18597;48.328;7.932;2022-09-09T05:03:35;2.10;;;1.97;;
32082;SDS011;18597;48.328;7.932;2022-09-09T05:06:03;3.70;;;2.70;;
32082;SDS011;18597;48.328;7.932;2022-09-09T05:08:34;3.50;;;1.90;;
32082;SDS011;18597;48.328;7.932;2022-09-09T05:11:03;5.67;;;1.50;;
32082;SDS011;18597;48.328;7.932;2022-09-09T05:13:48;3.37;;;1.83;;
32082;SDS011;18597;48.328;7.932;2022-09-09T05:16:15;5.30;;;2.57;;
32082;SDS011;18597;48.328;7.932;2022-09-09T05:18:41;2.72;;;2.33;;
32082;SDS011;18597;48.328;7.932;2022-09-09T05:21:08;3.60;;;1.80;;
32082;SDS011;18597;48.328;7.932;2022-09-09T05:23:34;1.83;;;1.73;;
32082;SDS011;18597;48.328;7.932;2022-09-09T05:26:00;9.60;;;2.20;;
32082;SDS011;18597;48.328;7.932;2022-09-09T05:28:28;3.90;;;1.50;;
32082;SDS011;18597;48.328;7.932;2022-09-09T05:30:56;3.03;;;1.60;;
32082;SDS011;18597;48.328;7.932;2022-09-09T05:33:25;2.33;;;1.67;;
32082;SDS011;18597;48.328;7.932;2022-09-09T05:35:56;14.23;;;2.40;;
32082;SDS011;18597;48.328;7.932;2022-09-09T05:38:25;10.97;;;2.57;;
32082;SDS011;18597;48.328;7.932;2022-09-09T05:40:51;2.73;;;1.97;;
32082;SDS011;18597;48.328;7.932;2022-09-09T05:43:19;2.20;;;1.63;;
32082;SDS011;18597;48.328;7.932;2022-09-09T05:45:47;12.87;;;2.43;;
32082;SDS011;18597;48.328;7.932;2022-09-09T05:48:14;2.50;;;2.13;;
32082;SDS011;18597;48.328;7.932;2022-09-09T05:50:41;1.50;;;1.50;;
32082;SDS011;18597;48.328;7.932;2022-09-09T05:53:08;7.33;;;1.70;;
32082;SDS011;18597;48.328;7.932;2022-09-09T05:55:35;2.40;;;1.67;;
32082;SDS011;18597;48.328;7.932;2022-09-09T05:58:01;2.27;;;2.00;;
32082;SDS011;18597;48.328;7.932;2022-09-09T06:00:27;6.73;;;1.83;;
32082;SDS011;18597;48.328;7.932;2022-09-09T06:02:54;7.23;;;1.50;;
32082;SDS011;18597;48.328;7.932;2022-09-09T06:05:20;5.57;;;2.40;;
32082;SDS011;18597;48.328;7.932;2022-09-09T06:07:47;17.13;;;2.27;;
32082;SDS011;18597;48.328;7.932;2022-09-09T06:10:17;4.47;;;1.63;;
32082;SDS011;18597;48.328;7.932;2022-09-09T06:12:42;6.13;;;1.80;;
32082;SDS011;18597;48.328;7.932;2022-09-09T06:15:08;5.90;;;1.30;;
32082;SDS011;18597;48.328;7.932;2022-09-09T06:17:34;2.10;;;1.97;;
32082;SDS011;18597;48.328;7.932;2022-09-09T06:20:02;12.50;;;2.67;;
32082;SDS011;18597;48.328;7.932;2022-09-09T06:22:28;5.17;;;2.33;;
32082;SDS011;18597;48.328;7.932;2022-09-09T06:24:54;4.70;;;1.97;;
32082;SDS011;18597;48.328;7.932;2022-09-09T06:27:20;4.40;;;1.70;;
32082;SDS011;18597;48.328;7.932;2022-09-09T06:29:46;21.83;;;2.67;;
32082;SDS011;18597;48.328;7.932;2022-09-09T06:32:12;6.13;;;2.10;;
32082;SDS011;18597;48.328;7.932;2022-09-09T06:34:38;2.80;;;1.90;;
32082;SDS011;18597;48.328;7.932;2022-09-09T06:37:04;5.93;;;1.87;;
32082;SDS011;18597;48.328;7.932;2022-09-09T06:39:31;8.80;;;2.10;;
32082;SDS011;18597;48.328;7.932;2022-09-09T06:41:57;3.50;;;2.37;;
32082;SDS011;18597;48.328;7.932;2022-09-09T06:44:23;1.53;;;1.53;;
32082;SDS011;18597;48.328;7.932;2022-09-09T06:46:51;3.67;;;2.37;;
32082;SDS011;18597;48.328;7.932;2022-09-09T06:49:17;2.93;;;1.70;;
32082;SDS011;18597;48.328;7.932;2022-09-09T06:51:43;3.53;;;1.80;;
32082;SDS011;18597;48.328;7.932;2022-09-09T06:54:10;7.50;;;2.40;;
32082;SDS011;18597;48.328;7.932;2022-09-09T06:56:38;4.43;;;2.17;;
32082;SDS011;18597;48.328;7.932;2022-09-09T06:59:07;5.47;;;3.27;;
32082;SDS011;18597;48.328;7.932;2022-09-09T07:01:35;5.13;;;2.10;;
32082;SDS011;18597;48.328;7.932;2022-09-09T07:04:04;2.83;;;2.37;;
32082;SDS011;18597;48.328;7.932;2022-09-09T07:06:33;11.07;;;2.60;;
32082;SDS011;18597;48.328;7.932;2022-09-09T07:09:05;4.33;;;2.33;;
32082;SDS011;18597;48.328;7.932;2022-09-09T07:11:37;3.10;;;2.90;;
32082;SDS011;18597;48.328;7.932;2022-09-09T07:14:06;2.80;;;1.60;;
32082;SDS011;18597;48.328;7.932;2022-09-09T07:16:33;1.70;;;1.60;;
32082;SDS011;18597;48.328;7.932;2022-09-09T07:19:02;3.77;;;1.93;;
32082;SDS011;18597;48.328;7.932;2022-09-09T07:21:29;5.83;;;3.00;;
32082;SDS011;18597;48.328;7.932;2022-09-09T07:23:56;4.07;;;1.40;;
32082;SDS011;18597;48.328;7.932;2022-09-09T07:26:24;2.10;;;1.50;;
32082;SDS011;18597;48.328;7.932;2022-09-09T07:28:53;1.80;;;1.70;;
32082;SDS011;18597;48.328;7.932;2022-09-09T07:31:23;5.50;;;1.93;;
32082;SDS011;18597;48.328;7.932;2022-09-09T07:33:55;8.73;;;1.40;;
32082;SDS011;18597;48.328;7.932;2022-09-09T07:36:23;1.43;;;1.33;;
32082;SDS011;18597;48.328;7.932;2022-09-09T07:38:53;3.70;;;1.03;;
32082;SDS011;18597;48.328;7.932;2022-09-09T07:41:23;3.73;;;0.90;;
32082;SDS011;18597;48.328;7.932;2022-09-09T07:43:53;4.20;;;1.57;;
32082;SDS011;18597;48.328;7.932;2022-09-09T07:46:20;4.43;;;1.50;;
32082;SDS011;18597;48.328;7.932;2022-09-09T07:48:49;3.37;;;1.33;;
32082;SDS011;18597;48.328;7.932;2022-09-09T07:51:22;2.23;;;2.00;;
32082;SDS011;18597;48.328;7.932;2022-09-09T07:53:52;2.60;;;1.30;;
32082;SDS011;18597;48.328;7.932;2022-09-09T07:56:23;0.90;;;0.90;;
32082;SDS011;18597;48.328;7.932;2022-09-09T07:58:51;0.90;;;0.60;;
32082;SDS011;18597;48.328;7.932;2022-09-09T08:01:20;2.50;;;0.70;;
32082;SDS011;18597;48.328;7.932;2022-09-09T08:03:58;0.95;;;0.63;;
32082;SDS011;18597;48.328;7.932;2022-09-09T08:06:28;0.70;;;0.70;;
32082;SDS011;18597;48.328;7.932;2022-09-09T08:08:58;3.35;;;1.38;;
32082;SDS011;18597;48.328;7.932;2022-09-09T08:11:25;2.90;;;1.75;;
32082;SDS011;18597;48.328;7.932;2022-09-09T08:13:53;2.30;;;0.70;;
32082;SDS011;18597;48.328;7.932;2022-09-09T08:16:22;0.70;;;0.70;;
32082;SDS011;18597;48.328;7.932;2022-09-09T08:18:51;1.48;;;0.77;;
32082;SDS011;18597;48.328;7.932;2022-09-09T08:21:19;2.85;;;1.25;;
32082;SDS011;18597;48.328;7.932;2022-09-09T08:23:50;1.92;;;0.85;;
32082;SDS011;18597;48.328;7.932;2022-09-09T08:26:19;4.45;;;0.77;;
32082;SDS011;18597;48.328;7.932;2022-09-09T08:28:51;0.88;;;0.80;;
32082;SDS011;18597;48.328;7.932;2022-09-09T08:31:21;3.13;;;1.20;;
32082;SDS011;18597;48.328;7.932;2022-09-09T08:33:50;2.60;;;1.05;;
32082;SDS011;18597;48.328;7.932;2022-09-09T08:36:17;2.20;;;1.10;;
32082;SDS011;18597;48.328;7.932;2022-09-09T08:38:49;4.23;;;1.10;;
32082;SDS011;18597;48.328;7.932;2022-09-09T08:41:29;2.83;;;0.87;;
32082;SDS011;18597;48.328;7.932;2022-09-09T08:50:41;3.03;;;1.67;;
32082;SDS011;18597;48.328;7.932;2022-09-09T08:53:18;7.73;;;1.40;;
32082;SDS011;18597;48.328;7.932;2022-09-09T08:55:51;4.37;;;1.17;;
32082;SDS011;18597;48.328;7.932;2022-09-09T08:58:25;4.80;;;1.00;;
32082;SDS011;18597;48.328;7.932;2022-09-09T09:04:03;1.63;;;1.53;;
32082;SDS011;18597;48.328;7.932;2022-09-09T09:10:08;2.10;;;0.90;;
32082;SDS011;18597;48.328;7.932;2022-09-09T09:13:00;0.53;;;0.53;;
32082;SDS011;18597;48.328;7.932;2022-09-09T09:15:31;4.47;;;1.33;;
32082;SDS011;18597;48.328;7.932;2022-09-09T09:18:03;2.10;;;1.20;;
32082;SDS011;18597;48.328;7.932;2022-09-09T09:21:03;4.00;;;1.53;;
32082;SDS011;18597;48.328;7.932;2022-09-09T09:23:32;5.70;;;1.33;;
32082;SDS011;18597;48.328;7.932;2022-09-09T09:26:09;2.70;;;2.03;;
32082;SDS011;18597;48.328;7.932;2022-09-09T09:28:42;0.97;;;0.70;;
32082;SDS011;18597;48.328;7.932;2022-09-09T09:31:09;14.97;;;2.30;;
32082;SDS011;18597;48.328;7.932;2022-09-09T09:36:16;1.00;;;0.80;;
32082;SDS011;18597;48.328;7.932;2022-09-09T09:38:58;2.50;;;1.13;;
32082;SDS011;18597;48.328;7.932;2022-09-09T09:41:34;2.87;;;1.27;;
32082;SDS011;18597;48.328;7.932;2022-09-09T09:44:06;6.13;;;1.00;;
32082;SDS011;18597;48.328;7.932;2022-09-09T09:46:52;2.17;;;1.03;;
32082;SDS011;18597;48.328;7.932;2022-09-09T09:49:58;7.50;;;1.47;;
32082;SDS011;18597;48.328;7.932;2022-09-09T09:52:27;6.70;;;1.77;;
32082;SDS011;18597;48.328;7.932;2022-09-09T09:54:55;2.10;;;1.40;;
32082;SDS011;18597;48.328;7.932;2022-09-09T09:57:25;3.53;;;1.10;;
32082;SDS011;18597;48.328;7.932;2022-09-09T10:00:03;3.50;;;1.50;;
32082;SDS011;18597;48.328;7.932;2022-09-09T10:02:47;1.80;;;1.03;;
32082;SDS011;18597;48.328;7.932;2022-09-09T10:08:25;3.70;;;1.17;;
32082;SDS011;18597;48.328;7.932;2022-09-09T10:10:52;0.87;;;0.87;;
32082;SDS011;18597;48.328;7.932;2022-09-09T10:14:30;5.30;;;1.50;;
32082;SDS011;18597;48.328;7.932;2022-09-09T10:17:10;1.90;;;1.50;;
32082;SDS011;18597;48.328;7.932;2022-09-09T10:23:34;0.93;;;0.93;;
32082;SDS011;18597;48.328;7.932;2022-09-09T10:26:35;5.93;;;1.10;;
32082;SDS011;18597;48.328;7.932;2022-09-09T10:32:49;2.70;;;1.53;;
32082;SDS011;18597;48.328;7.932;2022-09-09T10:38:41;3.40;;;1.10;;
32082;SDS011;18597;48.328;7.932;2022-09-09T10:44:22;1.23;;;0.93;;
32082;SDS011;18597;48.328;7.932;2022-09-09T10:50:49;1.50;;;0.87;;
32082;SDS011;18597;48.328;7.932;2022-09-09T10:53:31;4.00;;;1.33;;
32082;SDS011;18597;48.328;7.932;2022-09-09T10:56:16;7.40;;;1.90;;
32082;SDS011;18597;48.328;7.932;2022-09-09T11:01:41;4.50;;;1.80;;
32082;SDS011;18597;48.328;7.932;2022-09-09T11:04:22;2.73;;;1.23;;
32082;SDS011;18597;48.328;7.932;2022-09-09T11:06:59;2.67;;;1.63;;
32082;SDS011;18597;48.328;7.932;2022-09-09T11:09:36;2.33;;;1.20;;
32082;SDS011;18597;48.328;7.932;2022-09-09T11:12:15;2.30;;;1.37;;
32082;SDS011;18597;48.328;7.932;2022-09-09T11:14:49;5.83;;;1.50;;
32082;SDS011;18597;48.328;7.932;2022-09-09T11:17:24;1.37;;;1.37;;
32082;SDS011;18597;48.328;7.932;2022-09-09T11:19:58;4.73;;;1.43;;
32082;SDS011;18597;48.328;7.932;2022-09-09T11:22:57;5.47;;;1.80;;
32082;SDS011;18597;48.328;7.932;2022-09-09T11:25:21;1.73;;;1.20;;
32082;SDS011;18597;48.328;7.932;2022-09-09T11:31:18;1.43;;;0.90;;
32082;SDS011;18597;48.328;7.932;2022-09-09T11:34:46;5.10;;;1.30;;
32082;SDS011;18597;48.328;7.932;2022-09-09T11:40:58;1.30;;;1.00;;
32082;SDS011;18597;48.328;7.932;2022-09-09T11:43:31;1.10;;;0.90;;
32082;SDS011;18597;48.328;7.932;2022-09-09T11:46:16;3.67;;;1.37;;
32082;SDS011;18597;48.328;7.932;2022-09-09T11:48:56;4.60;;;1.70;;
32082;SDS011;18597;48.328;7.932;2022-09-09T11:51:27;2.17;;;1.17;;
32082;SDS011;18597;48.328;7.932;2022-09-09T11:53:57;6.33;;;1.73;;
32082;SDS011;18597;48.328;7.932;2022-09-09T11:56:48;0.70;;;0.70;;
32082;SDS011;18597;48.328;7.932;2022-09-09T11:59:19;3.70;;;0.90;;
32082;SDS011;18597;48.328;7.932;2022-09-09T12:01:54;1.60;;;0.90;;
32082;SDS011;18597;48.328;7.932;2022-09-09T12:04:37;3.20;;;0.97;;
32082;SDS011;18597;48.328;7.932;2022-09-09T12:09:46;2.57;;;1.10;;
32082;SDS011;18597;48.328;7.932;2022-09-09T12:12:23;0.87;;;0.83;;
32082;SDS011;18597;48.328;7.932;2022-09-09T12:15:01;2.53;;;0.60;;
32082;SDS011;18597;48.328;7.932;2022-09-09T12:17:46;4.20;;;1.00;;
32082;SDS011;18597;48.328;7.932;2022-09-09T12:20:23;2.67;;;1.10;;
32082;SDS011;18597;48.328;7.932;2022-09-09T12:23:38;3.53;;;1.30;;
32082;SDS011;18597;48.328;7.932;2022-09-09T12:26:34;1.53;;;0.60;;
32082;SDS011;18597;48.328;7.932;2022-09-09T12:32:32;3.37;;;0.90;;
32082;SDS011;18597;48.328;7.932;2022-09-09T12:34:59;5.30;;;0.70;;
32082;SDS011;18597;48.328;7.932;2022-09-09T12:37:55;1.07;;;0.67;;
32082;SDS011;18597;48.328;7.932;2022-09-09T12:40:26;2.93;;;1.00;;
32082;SDS011;18597;48.328;7.932;2022-09-09T12:43:00;4.37;;;1.33;;
32082;SDS011;18597;48.328;7.932;2022-09-09T12:45:29;2.30;;;0.50;;
32082;SDS011;18597;48.328;7.932;2022-09-09T12:48:00;1.23;;;0.50;;
32082;SDS011;18597;48.328;7.932;2022-09-09T12:50:32;7.77;;;1.70;;
32082;SDS011;18597;48.328;7.932;2022-09-09T12:53:03;2.00;;;0.97;;
32082;SDS011;18597;48.328;7.932;2022-09-09T12:55:48;0.70;;;0.70;;
32082;SDS011;18597;48.328;7.932;2022-09-09T12:58:23;1.47;;;0.97;;
32082;SDS011;18597;48.328;7.932;2022-09-09T13:00:51;1.13;;;0.70;;
32082;SDS011;18597;48.328;7.932;2022-09-09T13:03:23;1.57;;;1.37;;
32082;SDS011;18597;48.328;7.932;2022-09-09T13:05:50;6.37;;;1.40;;
32082;SDS011;18597;48.328;7.932;2022-09-09T13:08:18;3.13;;;0.90;;
32082;SDS011;18597;48.328;7.932;2022-09-09T13:10:54;7.33;;;1.37;;
32082;SDS011;18597;48.328;7.932;2022-09-09T13:13:35;1.37;;;0.70;;
32082;SDS011;18597;48.328;7.932;2022-09-09T13:16:05;7.13;;;1.97;;
32082;SDS011;18597;48.328;7.932;2022-09-09T13:18:43;2.10;;;0.90;;
32082;SDS011;18597;48.328;7.932;2022-09-09T13:21:09;3.70;;;1.53;;
32082;SDS011;18597;48.328;7.932;2022-09-09T13:23:35;4.00;;;0.97;;
32082;SDS011;18597;48.328;7.932;2022-09-09T13:26:06;1.20;;;1.20;;
32082;SDS011;18597;48.328;7.932;2022-09-09T13:28:53;12.57;;;1.23;;
32082;SDS011;18597;48.328;7.932;2022-09-09T13:33:56;3.97;;;1.00;;
32082;SDS011;18597;48.328;7.932;2022-09-09T13:36:29;3.50;;;1.17;;
32082;SDS011;18597;48.328;7.932;2022-09-09T13:38:59;2.73;;;1.20;;
32082;SDS011;18597;48.328;7.932;2022-09-09T13:41:29;6.53;;;0.90;;
32082;SDS011;18597;48.328;7.932;2022-09-09T13:44:01;0.50;;;0.50;;
32082;SDS011;18597;48.328;7.932;2022-09-09T13:51:44;4.00;;;0.90;;
32082;SDS011;18597;48.328;7.932;2022-09-09T13:54:14;6.63;;;0.60;;
32082;SDS011;18597;48.328;7.932;2022-09-09T13:56:43;2.53;;;1.17;;
32082;SDS011;18597;48.328;7.932;2022-09-09T13:59:11;2.23;;;1.00;;
32082;SDS011;18597;48.328;7.932;2022-09-09T14:01:40;1.53;;;0.90;;
32082;SDS011;18597;48.328;7.932;2022-09-09T14:04:06;3.30;;;1.43;;
32082;SDS011;18597;48.328;7.932;2022-09-09T14:06:34;3.87;;;1.73;;
32082;SDS011;18597;48.328;7.932;2022-09-09T14:09:03;0.70;;;0.40;;
32082;SDS011;18597;48.328;7.932;2022-09-09T14:11:32;0.90;;;0.90;;
32082;SDS011;18597;48.328;7.932;2022-09-09T14:13:58;2.07;;;0.90;;
32082;SDS011;18597;48.328;7.932;2022-09-09T14:16:25;4.57;;;0.97;;
32082;SDS011;18597;48.328;7.932;2022-09-09T14:18:53;0.40;;;0.37;;
32082;SDS011;18597;48.328;7.932;2022-09-09T14:21:21;4.93;;;0.70;;
32082;SDS011;18597;48.328;7.932;2022-09-09T14:23:47;1.20;;;0.70;;
32082;SDS011;18597;48.328;7.932;2022-09-09T14:26:13;3.47;;;0.67;;
32082;SDS011;18597;48.328;7.932;2022-09-09T14:28:40;4.20;;;0.50;;
32082;SDS011;18597;48.328;7.932;2022-09-09T14:31:06;1.17;;;0.57;;
32082;SDS011;18597;48.328;7.932;2022-09-09T14:33:32;0.83;;;0.67;;
32082;SDS011;18597;48.328;7.932;2022-09-09T14:35:59;0.40;;;0.27;;
32082;SDS011;18597;48.328;7.932;2022-09-09T14:38:30;1.23;;;0.67;;
32082;SDS011;18597;48.328;7.932;2022-09-09T14:40:58;3.37;;;0.70;;
32082;SDS011;18597;48.328;7.932;2022-09-09T14:43:28;2.57;;;0.40;;
32082;SDS011;18597;48.328;7.932;2022-09-09T14:45:55;1.83;;;0.80;;
32082;SDS011;18597;48.328;7.932;2022-09-09T14:48:21;1.53;;;0.80;;
32082;SDS011;18597;48.328;7.932;2022-09-09T14:50:47;0.53;;;0.50;;
32082;SDS011;18597;48.328;7.932;2022-09-09T14:53:14;1.13;;;0.43;;
32082;SDS011;18597;48.328;7.932;2022-09-09T14:55:42;2.73;;;0.93;;
32082;SDS011;18597;48.328;7.932;2022-09-09T14:58:07;0.47;;;0.47;;
32082;SDS011;18597;48.328;7.932;2022-09-09T15:00:33;2.37;;;1.20;;
32082;SDS011;18597;48.328;7.932;2022-09-09T15:02:59;2.40;;;0.70;;
32082;SDS011;18597;48.328;7.932;2022-09-09T15:05:25;8.37;;;1.17;;
32082;SDS011;18597;48.328;7.932;2022-09-09T15:07:51;3.10;;;0.80;;
32082;SDS011;18597;48.328;7.932;2022-09-09T15:10:16;0.50;;;0.50;;
32082;SDS011;18597;48.328;7.932;2022-09-09T15:12:42;3.10;;;0.70;;
32082;SDS011;18597;48.328;7.932;2022-09-09T15:15:09;1.07;;;1.07;;
32082;SDS011;18597;48.328;7.932;2022-09-09T15:17:35;0.80;;;0.60;;
32082;SDS011;18597;48.328;7.932;2022-09-09T15:20:02;2.07;;;0.70;;
32082;SDS011;18597;48.328;7.932;2022-09-09T15:22:30;4.90;;;1.13;;
32082;SDS011;18597;48.328;7.932;2022-09-09T15:24:57;3.90;;;0.73;;
32082;SDS011;18597;48.328;7.932;2022-09-09T15:27:23;0.60;;;0.60;;
32082;SDS011;18597;48.328;7.932;2022-09-09T15:29:49;0.93;;;0.80;;
32082;SDS011;18597;48.328;7.932;2022-09-09T15:32:16;1.67;;;0.90;;
32082;SDS011;18597;48.328;7.932;2022-09-09T15:34:43;0.40;;;0.40;;
32082;SDS011;18597;48.328;7.932;2022-09-09T15:37:10;0.70;;;0.70;;
32082;SDS011;18597;48.328;7.932;2022-09-09T15:39:38;1.03;;;0.87;;
32082;SDS011;18597;48.328;7.932;2022-09-09T15:42:05;0.87;;;0.87;;
32082;SDS011;18597;48.328;7.932;2022-09-09T15:44:40;4.63;;;0.90;;
32082;SDS011;18597;48.328;7.932;2022-09-09T15:47:07;4.50;;;1.13;;
32082;SDS011;18597;48.328;7.932;2022-09-09T15:49:37;1.63;;;0.80;;
32082;SDS011;18597;48.328;7.932;2022-09-09T15:52:03;1.20;;;0.50;;
32082;SDS011;18597;48.328;7.932;2022-09-09T15:54:31;0.90;;;0.63;;
32082;SDS011;18597;48.328;7.932;2022-09-09T15:57:02;1.90;;;0.60;;
32082;SDS011;18597;48.328;7.932;2022-09-09T15:59:29;1.37;;;0.60;;
32082;SDS011;18597;48.328;7.932;2022-09-09T16:01:57;1.40;;;1.17;;
32082;SDS011;18597;48.328;7.932;2022-09-09T16:04:24;1.90;;;1.07;;
32082;SDS011;18597;48.328;7.932;2022-09-09T16:06:52;1.13;;;0.77;;
32082;SDS011;18597;48.328;7.932;2022-09-09T16:09:19;5.97;;;1.53;;
32082;SDS011;18597;48.328;7.932;2022-09-09T16:11:46;0.77;;;0.73;;
32082;SDS011;18597;48.328;7.932;2022-09-09T16:14:13;2.20;;;0.43;;
32082;SDS011;18597;48.328;7.932;2022-09-09T16:16:41;7.13;;;0.90;;
32082;SDS011;18597;48.328;7.932;2022-09-09T16:19:09;3.40;;;0.70;;
32082;SDS011;18597;48.328;7.932;2022-09-09T16:21:40;4.57;;;1.63;;
32082;SDS011;18597;48.328;7.932;2022-09-09T16:24:11;1.43;;;0.70;;
32082;SDS011;18597;48.328;7.932;2022-09-09T16:26:41;0.70;;;0.70;;
32082;SDS011;18597;48.328;7.932;2022-09-09T16:29:12;3.30;;;0.90;;
32082;SDS011;18597;48.328;7.932;2022-09-09T16:31:39;4.83;;;0.87;;
32082;SDS011;18597;48.328;7.932;2022-09-09T16:34:06;3.60;;;0.70;;
32082;SDS011;18597;48.328;7.932;2022-09-09T16:36:34;0.60;;;0.60;;
32082;SDS011;18597;48.328;7.932;2022-09-09T16:39:04;1.60;;;1.00;;
32082;SDS011;18597;48.328;7.932;2022-09-09T16:41:33;3.83;;;0.60;;
32082;SDS011;18597;48.328;7.932;2022-09-09T16:44:01;9.67;;;1.07;;
32082;SDS011;18597;48.328;7.932;2022-09-09T16:46:30;1.80;;;0.93;;